Time;durP1;ratioP1;P1;durP2;ratioP2;P2;SDS_P1;SDS_P2;PMS_P1;PMS_P2;Temp;Humidity;BMP_temperature;BMP_pressure;BME280_temperature;BME280_humidity;BME280_pressure;Samples;Min_cycle;Max_cycle;Signal;HPM_P1;HPM_P2
2023/05/08 00:00:39;;;;;;;15.20;13.85;;;17.10;99.90;;;;;;6210189;23;20032;-76
2023/05/08 00:03:05;;;;;;;17.88;15.07;;;17.00;99.90;;;;;;6211520;23;20330;-76
2023/05/08 00:05:30;;;;;;;16.30;14.77;;;17.00;99.90;;;;;;6211576;23;20005;-76
2023/05/08 00:08:00;;;;;;;17.52;15.98;;;17.00;99.90;;;;;;6212161;23;20071;-76
2023/05/08 00:10:27;;;;;;;20.85;18.83;;;17.00;99.90;;;;;;6210989;23;20011;-76
2023/05/08 00:12:52;;;;;;;23.38;20.98;;;16.90;99.90;;;;;;6212039;23;20055;-76
2023/05/08 00:15:18;;;;;;;23.33;21.13;;;16.90;99.90;;;;;;6211583;23;20000;-76
2023/05/08 00:17:44;;;;;;;24.83;22.55;;;16.90;99.90;;;;;;6212009;23;20001;-76
2023/05/08 00:20:10;;;;;;;25.15;22.63;;;16.90;99.90;;;;;;6184676;23;20090;-76
2023/05/08 00:22:36;;;;;;;26.10;23.58;;;16.80;99.90;;;;;;6211910;23;20068;-76
2023/05/08 00:25:03;;;;;;;26.08;23.55;;;16.80;99.90;;;;;;6211867;23;20031;-76
2023/05/08 00:27:28;;;;;;;26.48;23.88;;;16.70;99.90;;;;;;6211412;23;20013;-76
2023/05/08 00:29:54;;;;;;;26.35;23.83;;;16.70;99.90;;;;;;6212160;23;20035;-76
2023/05/08 00:32:19;;;;;;;27.63;24.88;;;16.60;99.90;;;;;;6211127;23;19997;-76
2023/05/08 00:34:45;;;;;;;27.92;25.30;;;16.60;99.90;;;;;;6185124;23;20023;-75
2023/05/08 00:37:10;;;;;;;27.02;24.38;;;16.60;99.90;;;;;;6184109;23;20087;-75
2023/05/08 00:39:36;;;;;;;28.05;25.17;;;16.50;99.90;;;;;;6211691;23;20035;-76
2023/05/08 00:42:02;;;;;;;28.00;25.40;;;16.50;99.90;;;;;;6211661;23;20023;-76
2023/05/08 00:44:27;;;;;;;27.55;24.90;;;16.40;99.90;;;;;;6211142;23;20039;-76
2023/05/08 00:46:53;;;;;;;27.77;25.17;;;16.40;99.90;;;;;;6211676;23;20019;-76
2023/05/08 00:49:19;;;;;;;27.55;24.73;;;16.30;99.90;;;;;;6210897;23;20062;-75
2023/05/08 00:51:46;;;;;;;26.65;24.15;;;16.30;99.90;;;;;;6184481;23;20313;-76
2023/05/08 00:54:13;;;;;;;26.38;23.98;;;16.20;99.90;;;;;;6184136;23;20004;-75
2023/05/08 00:56:39;;;;;;;26.95;24.27;;;16.20;99.90;;;;;;6185050;23;20112;-75
2023/05/08 00:59:12;;;;;;;28.35;25.60;;;16.10;99.90;;;;;;6184782;23;20334;-75
2023/05/08 01:01:39;;;;;;;26.98;24.50;;;16.10;99.90;;;;;;6211342;23;20008;-75
2023/05/08 01:04:05;;;;;;;27.40;24.52;;;16.00;99.90;;;;;;6184807;23;20390;-75
2023/05/08 01:06:31;;;;;;;28.33;25.35;;;16.00;99.90;;;;;;6183650;23;20015;-76
2023/05/08 01:08:57;;;;;;;27.88;25.13;;;16.00;99.90;;;;;;6211619;23;20078;-76
2023/05/08 01:11:34;;;;;;;27.67;24.98;;;16.00;99.90;;;;;;6211275;23;20163;-76
2023/05/08 01:14:09;;;;;;;28.67;25.88;;;15.90;99.90;;;;;;6210973;23;20012;-75
2023/05/08 01:16:55;;;;;;;28.40;25.50;;;15.90;99.90;;;;;;6184467;23;20004;-75
2023/05/08 01:19:45;;;;;;;28.52;25.60;;;15.90;99.90;;;;;;6210737;23;20072;-75
2023/05/08 01:22:29;;;;;;;30.67;27.75;;;15.90;99.90;;;;;;6183440;23;20039;-75
2023/05/08 01:25:16;;;;;;;27.88;25.17;;;15.90;99.90;;;;;;6211299;23;20280;-76
2023/05/08 01:28:00;;;;;;;29.98;27.02;;;15.80;99.90;;;;;;6211523;23;20441;-75
2023/05/08 01:30:48;;;;;;;29.13;26.27;;;15.80;99.90;;;;;;6210777;23;20043;-75
2023/05/08 01:33:23;;;;;;;29.50;26.55;;;15.80;99.90;;;;;;6210572;23;20015;-75
2023/05/08 01:35:54;;;;;;;31.40;28.05;;;15.70;99.90;;;;;;6183831;23;20015;-75
2023/05/08 01:38:51;;;;;;;29.10;26.10;;;15.70;99.90;;;;;;6210554;23;19999;-76
2023/05/08 01:41:29;;;;;;;30.30;27.23;;;15.70;99.90;;;;;;6183568;23;20423;-76
2023/05/08 01:44:16;;;;;;;27.42;24.10;;;15.70;99.90;;;;;;6211151;23;20024;-76
2023/05/08 01:46:46;;;;;;;31.33;28.23;;;15.70;99.90;;;;;;6211203;23;20192;-75
2023/05/08 01:49:25;;;;;;;28.60;25.73;;;15.60;99.90;;;;;;6210344;23;20076;-76
2023/05/08 01:52:04;;;;;;;31.38;28.10;;;15.60;99.90;;;;;;6210721;23;19997;-76
2023/05/08 01:54:45;;;;;;;30.13;27.17;;;15.60;99.90;;;;;;6210782;23;20035;-75
2023/05/08 01:57:12;;;;;;;29.98;27.02;;;15.60;99.90;;;;;;6183822;23;20012;-75
2023/05/08 01:59:41;;;;;;;27.88;25.15;;;15.50;99.90;;;;;;6184460;23;20091;-75
2023/05/08 02:02:08;;;;;;;30.20;26.98;;;15.50;99.90;;;;;;6183733;23;20398;-75
2023/05/08 02:04:35;;;;;;;29.33;26.42;;;15.40;99.90;;;;;;6210288;23;20016;-76
2023/05/08 02:07:02;;;;;;;28.48;25.55;;;15.40;99.90;;;;;;6210954;23;20725;-76
2023/05/08 02:09:29;;;;;;;31.00;27.75;;;15.40;99.90;;;;;;6210219;23;20430;-76
2023/05/08 02:11:55;;;;;;;28.40;25.48;;;15.40;99.90;;;;;;6210811;23;20050;-76
2023/05/08 02:14:22;;;;;;;29.90;25.92;;;15.30;99.90;;;;;;6210313;23;19997;-75
2023/05/08 02:16:50;;;;;;;28.23;25.33;;;15.30;99.90;;;;;;6210740;23;20102;-76
2023/05/08 02:19:16;;;;;;;30.58;27.67;;;15.20;99.90;;;;;;6209692;23;20008;-75
2023/05/08 02:21:44;;;;;;;29.70;26.88;;;15.20;99.90;;;;;;6184272;23;20004;-76
2023/05/08 02:24:12;;;;;;;29.33;26.42;;;15.20;99.90;;;;;;6210637;23;20408;-76
2023/05/08 02:26:40;;;;;;;28.80;25.98;;;15.20;99.90;;;;;;6184106;23;20386;-76
2023/05/08 02:29:06;;;;;;;31.90;28.65;;;15.20;99.90;;;;;;6210842;23;20048;-76
2023/05/08 02:31:32;;;;;;;30.83;27.08;;;15.10;99.90;;;;;;6210266;23;20091;-76
2023/05/08 02:33:59;;;;;;;31.95;28.60;;;15.10;99.90;;;;;;6210355;23;20350;-76
2023/05/08 02:36:27;;;;;;;32.08;28.48;;;15.10;99.90;;;;;;6210465;23;20001;-76
2023/05/08 02:38:55;;;;;;;32.42;29.23;;;15.00;99.90;;;;;;6214002;23;20023;-75
2023/05/08 02:41:21;;;;;;;34.63;31.15;;;15.00;99.90;;;;;;6211055;23;20386;-76
2023/05/08 02:43:48;;;;;;;33.35;30.02;;;15.00;99.90;;;;;;6211103;23;20080;-76
2023/05/08 02:46:19;;;;;;;32.33;29.10;;;14.90;99.90;;;;;;6210284;23;20009;-76
2023/05/08 02:49:06;;;;;;;32.45;29.30;;;14.90;99.90;;;;;;6210118;23;20134;-76
2023/05/08 02:51:59;;;;;;;32.50;29.38;;;14.90;99.90;;;;;;6210610;23;20004;-75
2023/05/08 02:54:37;;;;;;;32.58;29.40;;;14.90;99.90;;;;;;6211396;23;20001;-74
2023/05/08 02:57:13;;;;;;;32.75;29.48;;;14.80;99.90;;;;;;6185463;23;20169;-76
2023/05/08 02:59:44;;;;;;;32.85;29.33;;;14.90;99.90;;;;;;6210949;23;20004;-75
2023/05/08 03:02:23;;;;;;;31.15;28.20;;;14.90;99.90;;;;;;6209887;23;20001;-76
2023/05/08 03:04:54;;;;;;;32.67;29.48;;;14.80;99.90;;;;;;6184023;23;20005;-76
2023/05/08 03:07:23;;;;;;;33.13;29.83;;;14.80;99.90;;;;;;6210086;23;20055;-76
2023/05/08 03:09:52;;;;;;;31.80;28.83;;;14.80;99.90;;;;;;6210705;23;20001;-76
2023/05/08 03:12:22;;;;;;;33.30;30.10;;;14.80;99.90;;;;;;6210174;23;20009;-75
2023/05/08 03:15:06;;;;;;;31.77;28.65;;;14.80;99.90;;;;;;6210725;23;20000;-76
2023/05/08 03:17:34;;;;;;;31.58;28.58;;;14.80;99.90;;;;;;6208873;23;20381;-75
2023/05/08 03:20:04;;;;;;;36.15;32.45;;;14.80;99.90;;;;;;6181131;23;20020;-76
2023/05/08 03:22:35;;;;;;;31.98;28.95;;;14.70;99.90;;;;;;6207894;23;19993;-75
2023/05/08 03:25:04;;;;;;;31.27;28.17;;;14.70;99.90;;;;;;6208636;23;20020;-75
2023/05/08 03:27:31;;;;;;;33.63;30.05;;;14.70;99.90;;;;;;6207641;23;20415;-75
2023/05/08 03:29:58;;;;;;;37.05;33.15;;;14.70;99.90;;;;;;6208602;23;20337;-76
2023/05/08 03:32:26;;;;;;;35.13;31.55;;;14.70;99.90;;;;;;6207041;23;20036;-76
2023/05/08 03:34:52;;;;;;;31.45;28.08;;;14.70;99.90;;;;;;6209713;23;20340;-76
2023/05/08 03:37:18;;;;;;;33.67;30.02;;;14.70;99.90;;;;;;6210543;23;20007;-76
2023/05/08 03:39:44;;;;;;;33.55;30.05;;;14.70;99.90;;;;;;6212692;23;20012;-75
2023/05/08 03:42:15;;;;;;;34.40;30.92;;;14.70;99.90;;;;;;6185023;23;20016;-76
2023/05/08 03:44:41;;;;;;;37.30;33.38;;;14.70;99.90;;;;;;6212816;23;19997;-76
2023/05/08 03:47:07;;;;;;;35.03;31.30;;;14.70;99.90;;;;;;6211054;23;20000;-76
2023/05/08 03:49:33;;;;;;;34.42;30.92;;;14.70;99.90;;;;;;6212086;23;20227;-76
2023/05/08 03:51:59;;;;;;;35.72;32.10;;;14.70;99.90;;;;;;6212359;23;20016;-75
2023/05/08 03:54:27;;;;;;;34.70;31.15;;;14.70;99.90;;;;;;6211868;23;20414;-76
2023/05/08 03:56:53;;;;;;;34.58;31.15;;;14.70;99.90;;;;;;6212290;23;20151;-75
2023/05/08 03:59:51;;;;;;;34.97;31.40;;;14.70;99.90;;;;;;6211760;23;20329;-76
2023/05/08 04:02:40;;;;;;;36.03;32.20;;;14.70;99.90;;;;;;6211050;23;19997;-76
2023/05/08 04:05:27;;;;;;;35.22;31.52;;;14.70;99.90;;;;;;6185629;23;20070;-76
2023/05/08 04:08:08;;;;;;;36.10;32.45;;;14.70;99.90;;;;;;6212455;23;19996;-76
2023/05/08 04:11:03;;;;;;;34.97;31.48;;;14.70;99.90;;;;;;6212037;23;20418;-76
2023/05/08 04:13:33;;;;;;;32.58;29.25;;;14.70;99.90;;;;;;6191375;23;20009;-76
2023/05/08 04:16:06;;;;;;;31.98;28.80;;;14.60;99.90;;;;;;6210827;23;20008;-75
2023/05/08 04:18:35;;;;;;;38.33;34.50;;;14.60;99.90;;;;;;6211404;23;20000;-76
2023/05/08 04:21:05;;;;;;;33.72;30.23;;;14.60;99.90;;;;;;6212017;23;20004;-76
2023/05/08 04:23:32;;;;;;;34.25;31.10;;;14.60;99.90;;;;;;6211620;23;20015;-75
2023/05/08 04:25:59;;;;;;;35.08;31.58;;;14.60;99.90;;;;;;6212017;23;20466;-76
2023/05/08 04:28:25;;;;;;;35.25;31.67;;;14.60;99.90;;;;;;6211441;23;20008;-75
2023/05/08 04:30:51;;;;;;;34.97;31.52;;;14.60;99.90;;;;;;6211660;23;20647;-75
2023/05/08 04:33:17;;;;;;;34.72;31.35;;;14.70;99.90;;;;;;6184636;23;20015;-76
2023/05/08 04:35:45;;;;;;;35.45;31.73;;;14.70;99.90;;;;;;6211894;23;20627;-75
2023/05/08 04:38:10;;;;;;;35.25;31.70;;;14.70;99.90;;;;;;6184887;23;20092;-75
2023/05/08 04:40:36;;;;;;;34.45;31.10;;;14.70;99.90;;;;;;6211804;23;20032;-75
2023/05/08 04:43:02;;;;;;;33.33;30.05;;;14.60;99.90;;;;;;6183716;23;20013;-75
2023/05/08 04:45:27;;;;;;;37.28;33.53;;;14.70;99.90;;;;;;6209178;23;20382;-75
2023/05/08 04:47:53;;;;;;;36.85;33.10;;;14.70;99.90;;;;;;6210356;23;20032;-75
2023/05/08 04:50:19;;;;;;;35.55;32.00;;;14.70;99.90;;;;;;6209557;23;20005;-76
2023/05/08 04:52:44;;;;;;;32.33;29.10;;;14.70;99.90;;;;;;6210513;23;20430;-75
2023/05/08 04:55:10;;;;;;;35.55;32.08;;;14.70;99.90;;;;;;6210163;23;20024;-76
2023/05/08 04:57:35;;;;;;;33.78;30.50;;;14.70;99.90;;;;;;6210782;23;20031;-75
2023/05/08 05:00:01;;;;;;;34.83;31.58;;;14.70;99.90;;;;;;6209607;23;20071;-75
2023/05/08 05:02:27;;;;;;;36.20;32.75;;;14.70;99.90;;;;;;6209675;23;20003;-76
2023/05/08 05:04:57;;;;;;;35.80;32.40;;;14.70;99.90;;;;;;6210200;23;20028;-75
2023/05/08 05:07:23;;;;;;;36.20;32.80;;;14.80;99.90;;;;;;6182691;23;20078;-75
2023/05/08 05:09:48;;;;;;;35.58;32.08;;;14.70;99.90;;;;;;6210269;23;20423;-75
2023/05/08 05:12:14;;;;;;;34.33;31.05;;;14.70;99.90;;;;;;6209467;23;20004;-75
2023/05/08 05:14:40;;;;;;;37.67;34.03;;;14.80;99.90;;;;;;6183273;23;20032;-75
2023/05/08 05:17:05;;;;;;;36.50;33.00;;;14.80;99.90;;;;;;6210054;23;20008;-75
2023/05/08 05:19:31;;;;;;;36.58;32.80;;;14.80;99.90;;;;;;6209724;23;20088;-75
2023/05/08 05:21:57;;;;;;;35.75;32.35;;;14.80;99.90;;;;;;6210271;23;20039;-75
2023/05/08 05:24:22;;;;;;;34.90;31.70;;;14.90;99.90;;;;;;6209715;23;20005;-75
2023/05/08 05:26:48;;;;;;;36.15;32.67;;;15.00;99.90;;;;;;6183586;23;20484;-75
2023/05/08 05:29:13;;;;;;;35.28;31.70;;;15.00;99.90;;;;;;6209085;23;20008;-75
2023/05/08 05:31:39;;;;;;;35.33;31.92;;;15.00;99.90;;;;;;6210389;23;20001;-75
2023/05/08 05:34:04;;;;;;;35.63;32.35;;;15.10;99.90;;;;;;6210134;23;20078;-75
2023/05/08 05:36:30;;;;;;;38.33;34.70;;;15.10;99.90;;;;;;6209812;23;20092;-75
2023/05/08 05:38:55;;;;;;;35.22;32.03;;;15.10;99.90;;;;;;6210278;23;20252;-75
2023/05/08 05:41:21;;;;;;;36.10;32.58;;;15.10;99.90;;;;;;6137129;23;1051665;-75
2023/05/08 05:43:47;;;;;;;36.70;33.25;;;15.20;99.90;;;;;;6211124;23;20009;-78
2023/05/08 05:46:12;;;;;;;36.15;32.80;;;15.20;99.90;;;;;;6210866;23;20011;-75
2023/05/08 05:48:38;;;;;;;35.38;31.95;;;15.20;99.90;;;;;;6211423;23;20008;-75
2023/05/08 05:51:04;;;;;;;37.13;33.70;;;15.30;99.90;;;;;;6210962;23;20023;-75
2023/05/08 05:53:29;;;;;;;37.10;33.58;;;15.30;99.90;;;;;;6210771;23;20004;-76
2023/05/08 05:55:55;;;;;;;38.50;35.03;;;15.40;99.90;;;;;;6211398;23;20459;-75
2023/05/08 05:58:20;;;;;;;35.67;32.55;;;15.40;99.90;;;;;;6183763;23;20430;-78
2023/05/08 06:00:46;;;;;;;36.55;32.85;;;15.50;99.90;;;;;;6212429;23;20076;-76
2023/05/08 06:03:12;;;;;;;36.88;33.58;;;15.60;99.90;;;;;;6210711;23;19997;-75
2023/05/08 06:05:39;;;;;;;36.22;32.83;;;15.70;99.90;;;;;;6211366;23;20000;-75
2023/05/08 06:08:05;;;;;;;39.03;34.72;;;15.70;99.90;;;;;;6183847;23;20171;-72
2023/05/08 06:10:30;;;;;;;38.45;34.67;;;15.70;99.90;;;;;;6210089;23;20107;-72
2023/05/08 06:12:56;;;;;;;39.55;35.65;;;15.80;99.90;;;;;;6210662;23;20007;-72
2023/05/08 06:15:22;;;;;;;41.80;37.45;;;15.80;99.90;;;;;;6210411;23;20525;-72
2023/05/08 06:17:47;;;;;;;40.78;36.65;;;15.80;99.90;;;;;;6211311;23;20008;-72
2023/05/08 06:20:13;;;;;;;42.20;38.00;;;15.80;99.90;;;;;;6209967;23;20012;-74
2023/05/08 06:22:40;;;;;;;41.28;37.08;;;15.90;99.90;;;;;;6210071;23;19997;-73
2023/05/08 06:25:06;;;;;;;42.25;37.88;;;16.00;99.90;;;;;;6183312;23;20005;-73
2023/05/08 06:27:33;;;;;;;41.05;36.90;;;16.00;99.90;;;;;;6210476;23;20058;-74
2023/05/08 06:29:58;;;;;;;43.17;36.97;;;16.20;99.90;;;;;;6210494;23;19996;-72
2023/05/08 06:32:24;;;;;;;44.13;38.95;;;16.20;99.90;;;;;;6209913;23;20003;-73
2023/05/08 06:34:49;;;;;;;40.30;35.75;;;16.30;99.90;;;;;;6209517;23;20043;-73
2023/05/08 06:37:15;;;;;;;43.75;36.25;;;16.30;99.90;;;;;;6208818;23;20000;-72
2023/05/08 06:39:41;;;;;;;45.83;39.42;;;16.30;99.90;;;;;;6181195;23;20092;-73
2023/05/08 06:42:06;;;;;;;48.83;40.25;;;16.30;99.90;;;;;;6205490;23;20154;-75
2023/05/08 06:44:32;;;;;;;44.47;39.75;;;16.30;99.90;;;;;;6207099;23;20004;-73
2023/05/08 06:46:57;;;;;;;44.88;39.88;;;16.40;99.90;;;;;;6207669;23;20005;-72
2023/05/08 06:49:23;;;;;;;54.55;39.85;;;16.40;99.90;;;;;;6180144;23;20337;-73
2023/05/08 06:51:49;;;;;;;50.40;43.13;;;16.40;99.90;;;;;;6208856;23;20001;-73
2023/05/08 06:54:14;;;;;;;49.85;40.85;;;16.40;99.90;;;;;;6207900;23;20007;-73
2023/05/08 06:56:40;;;;;;;59.50;45.17;;;16.50;99.90;;;;;;6210608;23;20000;-73
2023/05/08 06:59:06;;;;;;;53.88;42.60;;;16.60;99.90;;;;;;6206669;23;19997;-74
2023/05/08 07:01:31;;;;;;;55.10;42.65;;;16.60;99.90;;;;;;6208398;23;20004;-73
2023/05/08 07:03:57;;;;;;;57.67;44.40;;;16.70;99.90;;;;;;6207939;23;20005;-72
2023/05/08 07:06:23;;;;;;;49.40;41.13;;;16.80;99.90;;;;;;6208991;23;20008;-73
2023/05/08 07:08:48;;;;;;;53.55;42.97;;;16.90;99.90;;;;;;6208303;23;20016;-73
2023/05/08 07:11:14;;;;;;;51.78;40.97;;;17.00;99.90;;;;;;6208738;23;20375;-74
2023/05/08 07:13:42;;;;;;;49.38;41.83;;;17.20;99.90;;;;;;6211366;23;20004;-74
2023/05/08 07:16:10;;;;;;;46.22;41.20;;;17.40;99.90;;;;;;6210332;23;20011;-74
2023/05/08 07:18:36;;;;;;;43.95;39.05;;;17.60;99.90;;;;;;6184655;23;20004;-74
2023/05/08 07:21:02;;;;;;;42.72;36.83;;;17.80;99.90;;;;;;6210779;23;20015;-74
2023/05/08 07:23:27;;;;;;;50.55;41.75;;;18.00;99.90;;;;;;6208855;23;20080;-73
2023/05/08 07:25:53;;;;;;;46.38;40.63;;;18.10;99.90;;;;;;6211484;23;20009;-74
2023/05/08 07:28:19;;;;;;;44.60;39.85;;;18.20;99.90;;;;;;6210833;23;19996;-74
2023/05/08 07:30:45;;;;;;;43.22;38.47;;;18.30;99.90;;;;;;6211912;23;20386;-73
2023/05/08 07:33:11;;;;;;;46.75;39.83;;;18.40;99.90;;;;;;6183913;23;20009;-74
2023/05/08 07:35:38;;;;;;;45.05;39.47;;;18.50;99.90;;;;;;6183996;23;20047;-72
2023/05/08 07:38:04;;;;;;;43.80;37.50;;;18.60;99.90;;;;;;6184102;23;20414;-72
2023/05/08 07:40:29;;;;;;;42.55;37.90;;;18.60;99.90;;;;;;6183821;23;20023;-72
2023/05/08 07:42:55;;;;;;;45.85;39.17;;;18.70;99.90;;;;;;6211010;23;20027;-73
2023/05/08 07:45:20;;;;;;;43.65;38.58;;;18.80;99.90;;;;;;6209492;23;20029;-73
2023/05/08 07:47:53;;;;;;;43.00;38.33;;;18.90;99.90;;;;;;6211253;23;20001;-73
2023/05/08 07:50:20;;;;;;;40.33;36.20;;;19.10;99.90;;;;;;6210962;23;20035;-73
2023/05/08 07:52:46;;;;;;;42.63;38.00;;;19.20;99.90;;;;;;6210769;23;20031;-73
2023/05/08 07:55:12;;;;;;;44.25;39.45;;;19.30;99.90;;;;;;6209672;23;20004;-73
2023/05/08 07:57:39;;;;;;;38.25;34.15;;;19.30;99.90;;;;;;6211872;23;20178;-73
2023/05/08 08:00:07;;;;;;;44.67;39.90;;;19.40;99.90;;;;;;6184636;23;20012;-73
2023/05/08 08:02:33;;;;;;;42.60;38.20;;;19.40;99.90;;;;;;6210128;23;20036;-73
2023/05/08 08:04:58;;;;;;;45.33;39.45;;;19.30;99.90;;;;;;6209749;23;20484;-73
2023/05/08 08:07:24;;;;;;;42.15;38.03;;;19.30;99.90;;;;;;6208288;23;20028;-73
2023/05/08 08:09:50;;;;;;;43.63;39.25;;;19.30;99.90;;;;;;6210499;23;20048;-73
2023/05/08 08:12:15;;;;;;;43.83;39.13;;;19.30;99.90;;;;;;6210561;23;20001;-73
2023/05/08 08:14:41;;;;;;;42.50;38.20;;;19.30;99.90;;;;;;6211693;23;20004;-73
2023/05/08 08:17:06;;;;;;;44.65;39.70;;;19.40;99.90;;;;;;6209546;23;20004;-73
2023/05/08 08:19:32;;;;;;;42.72;38.72;;;19.50;99.90;;;;;;6210693;23;20004;-73
2023/05/08 08:21:57;;;;;;;45.38;40.85;;;19.60;99.90;;;;;;6184195;23;20007;-73
2023/05/08 08:24:24;;;;;;;44.85;40.25;;;19.70;99.90;;;;;;6210352;23;20027;-73
2023/05/08 08:26:49;;;;;;;46.25;41.45;;;19.80;99.90;;;;;;6210675;23;20063;-73
2023/05/08 08:29:15;;;;;;;45.22;40.95;;;19.90;99.90;;;;;;6209450;23;20000;-72
2023/05/08 08:31:40;;;;;;;45.97;40.90;;;20.00;99.90;;;;;;6211244;23;20008;-73
2023/05/08 08:34:06;;;;;;;47.08;42.78;;;20.00;99.90;;;;;;6211356;23;20085;-72
2023/05/08 08:36:32;;;;;;;47.67;43.00;;;20.10;99.90;;;;;;6210268;23;20422;-72
2023/05/08 08:38:58;;;;;;;46.70;42.40;;;20.20;99.90;;;;;;6210113;23;20011;-72
2023/05/08 08:41:23;;;;;;;47.67;43.10;;;20.30;99.90;;;;;;6210377;23;20013;-73
2023/05/08 08:43:49;;;;;;;39.03;35.28;;;20.20;99.90;;;;;;6184870;23;20326;-73
2023/05/08 08:46:19;;;;;;;46.63;42.22;;;20.20;99.90;;;;;;6184108;23;20019;-72
2023/05/08 08:48:46;;;;;;;46.40;41.95;;;20.20;99.90;;;;;;6182982;23;20788;-73
2023/05/08 08:51:40;;;;;;;45.97;41.50;;;20.20;99.90;;;;;;6210223;23;20000;-73
2023/05/08 08:54:10;;;;;;;41.92;37.58;;;20.40;99.90;;;;;;6211082;23;20013;-72
2023/05/08 08:56:38;;;;;;;44.53;40.33;;;20.50;99.90;;;;;;6211206;23;20000;-73
2023/05/08 08:59:04;;;;;;;42.83;38.65;;;20.60;99.90;;;;;;6209414;23;20044;-73
2023/05/08 09:01:37;;;;;;;43.17;38.83;;;20.70;99.90;;;;;;6210173;23;20001;-72
2023/05/08 09:04:04;;;;;;;41.60;37.60;;;20.70;99.90;;;;;;6210559;23;20436;-73
2023/05/08 09:06:30;;;;;;;38.35;34.22;;;20.80;99.90;;;;;;6210304;23;20016;-73
2023/05/08 09:08:56;;;;;;;42.80;38.47;;;20.90;99.90;;;;;;6210540;23;20004;-73
2023/05/08 09:11:26;;;;;;;41.65;37.22;;;21.00;99.90;;;;;;6207695;23;20074;-73
2023/05/08 09:13:53;;;;;;;42.08;37.65;;;21.10;99.90;;;;;;6183855;23;20062;-73
2023/05/08 09:16:19;;;;;;;44.03;39.40;;;21.30;99.90;;;;;;6182313;23;20033;-72
2023/05/08 09:18:44;;;;;;;41.17;36.72;;;21.30;99.90;;;;;;6210783;23;20008;-73
2023/05/08 09:21:10;;;;;;;41.47;37.33;;;21.40;99.90;;;;;;6182337;23;20106;-73
2023/05/08 09:23:36;;;;;;;39.30;35.25;;;21.60;99.90;;;;;;6211988;23;19996;-73
2023/05/08 09:26:02;;;;;;;39.92;35.83;;;21.70;99.90;;;;;;6210972;23;20451;-74
2023/05/08 09:28:27;;;;;;;37.20;33.38;;;21.70;99.90;;;;;;6183709;23;20476;-73
2023/05/08 09:30:58;;;;;;;39.40;35.50;;;21.70;99.90;;;;;;6210971;23;20950;-73
2023/05/08 09:33:25;;;;;;;37.95;34.22;;;21.70;99.90;;;;;;6209554;23;20028;-72
2023/05/08 09:35:52;;;;;;;37.50;33.63;;;21.60;99.90;;;;;;6183139;23;20051;-73
2023/05/08 09:38:38;;;;;;;39.85;36.08;;;21.40;99.90;;;;;;6209659;23;20423;-73
2023/05/08 09:41:13;;;;;;;41.50;37.45;;;21.30;99.90;;;;;;6210377;23;20227;-73
2023/05/08 09:43:38;;;;;;;39.95;36.10;;;21.30;99.90;;;;;;6209693;23;20050;-73
2023/05/08 09:46:24;;;;;;;37.95;34.38;;;21.30;99.90;;;;;;6210745;23;20079;-74
2023/05/08 09:48:51;;;;;;;38.15;34.53;;;21.50;99.90;;;;;;6210256;23;20009;-74
2023/05/08 09:51:17;;;;;;;39.50;35.80;;;21.70;99.90;;;;;;6182878;23;20015;-73
2023/05/08 09:53:43;;;;;;;43.40;39.30;;;21.90;99.90;;;;;;6209688;23;20008;-74
2023/05/08 09:56:09;;;;;;;43.58;39.53;;;22.00;99.90;;;;;;6210024;23;20031;-73
2023/05/08 09:58:39;;;;;;;42.70;38.80;;;22.10;99.90;;;;;;6183945;23;20005;-73
2023/05/08 10:01:06;;;;;;;43.28;39.33;;;22.10;99.90;;;;;;6183849;23;20121;-74
2023/05/08 10:03:50;;;;;;;39.40;35.28;;;22.00;99.90;;;;;;6209380;23;20058;-74
2023/05/08 10:06:15;;;;;;;42.20;38.08;;;22.00;99.90;;;;;;6209958;23;20001;-74
2023/05/08 10:08:41;;;;;;;41.85;38.05;;;21.90;99.90;;;;;;6210700;23;20107;-74
2023/05/08 10:11:20;;;;;;;42.58;38.58;;;21.90;99.90;;;;;;6210663;23;20414;-73
2023/05/08 10:13:46;;;;;;;41.50;37.70;;;21.90;99.90;;;;;;6210272;23;20000;-73
2023/05/08 10:16:16;;;;;;;46.47;42.15;;;22.00;99.90;;;;;;6208587;23;20005;-73
2023/05/08 10:18:49;;;;;;;41.30;37.42;;;21.80;99.90;;;;;;6210396;23;19993;-74
2023/05/08 10:21:16;;;;;;;45.80;41.58;;;21.70;99.90;;;;;;6210021;23;19997;-73
2023/05/08 10:23:42;;;;;;;45.42;41.30;;;21.50;99.90;;;;;;6210910;23;20424;-73
2023/05/08 10:26:13;;;;;;;44.53;40.65;;;21.30;99.90;;;;;;6208676;23;20043;-72
2023/05/08 10:28:58;;;;;;;41.20;37.65;;;21.20;99.90;;;;;;6210748;23;19993;-72
2023/05/08 10:31:34;;;;;;;45.63;41.72;;;21.20;99.90;;;;;;6210005;23;20011;-72
2023/05/08 10:34:01;;;;;;;43.35;39.47;;;21.20;99.90;;;;;;6154004;23;20079;-72
2023/05/08 10:36:28;;;;;;;43.10;39.22;;;21.20;99.90;;;;;;6152609;23;20021;-72
2023/05/08 10:38:57;;;;;;;46.08;41.88;;;21.20;99.90;;;;;;6179456;23;20040;-73
2023/05/08 10:41:23;;;;;;;49.25;44.63;;;21.20;99.90;;;;;;6179384;23;20151;-73
2023/05/08 10:43:50;;;;;;;45.95;41.50;;;21.10;99.90;;;;;;6180603;23;20109;-72
2023/05/08 10:46:47;;;;;;;46.50;42.22;;;21.10;99.90;;;;;;6179156;23;19997;-72
2023/05/08 10:49:33;;;;;;;48.33;43.85;;;21.00;99.90;;;;;;6151599;23;20005;-72
2023/05/08 10:52:23;;;;;;;47.47;43.03;;;20.80;99.90;;;;;;6180292;23;20016;-74
2023/05/08 10:55:01;;;;;;;39.10;35.60;;;20.60;99.90;;;;;;6179900;23;20037;-72
2023/05/08 10:57:26;;;;;;;49.60;44.97;;;20.50;99.90;;;;;;6153252;23;20436;-73
2023/05/08 10:59:52;;;;;;;49.03;44.63;;;20.40;99.90;;;;;;6152373;23;20035;-72
2023/05/08 11:02:27;;;;;;;51.15;46.55;;;20.40;99.90;;;;;;6179101;23;20032;-73
2023/05/08 11:04:53;;;;;;;53.50;48.72;;;20.40;99.90;;;;;;6180397;23;20001;-72
2023/05/08 11:07:18;;;;;;;53.13;48.38;;;20.50;99.90;;;;;;6180007;23;20378;-73
2023/05/08 11:09:47;;;;;;;52.45;47.65;;;20.50;99.90;;;;;;6179016;23;20013;-73
2023/05/08 11:12:25;;;;;;;50.20;45.65;;;20.50;99.90;;;;;;6178877;23;20004;-73
2023/05/08 11:15:05;;;;;;;55.10;50.10;;;20.60;99.90;;;;;;6180166;23;20001;-72
2023/05/08 11:17:32;;;;;;;51.85;47.03;;;20.70;99.90;;;;;;6179866;23;20005;-73
2023/05/08 11:20:03;;;;;;;51.10;46.50;;;20.70;99.90;;;;;;6153771;23;20547;-73
2023/05/08 11:22:31;;;;;;;52.10;47.30;;;20.90;99.90;;;;;;6178145;23;20002;-73
2023/05/08 11:25:06;;;;;;;53.00;48.08;;;21.00;99.90;;;;;;6180244;23;20001;-73
2023/05/08 11:27:40;;;;;;;47.53;43.45;;;21.10;99.90;;;;;;6153090;23;20005;-73
2023/05/08 11:30:44;;;;;;;52.25;47.67;;;21.30;99.90;;;;;;6179417;23;20013;-73
2023/05/08 11:33:09;;;;;;;46.28;42.28;;;21.40;99.90;;;;;;6029649;23;20102;-74
2023/05/08 11:35:50;;;;;;;48.60;44.05;;;21.50;99.90;;;;;;6031286;23;20022;-73
2023/05/08 11:38:16;;;;;;;48.90;44.63;;;21.70;99.90;;;;;;6030423;23;20011;-73
2023/05/08 11:41:00;;;;;;;43.25;39.45;;;21.90;99.90;;;;;;6030689;23;20813;-75
2023/05/08 11:43:26;;;;;;;48.35;44.20;;;22.10;99.90;;;;;;6028957;23;20103;-73
2023/05/08 11:45:53;;;;;;;47.92;43.67;;;22.20;99.90;;;;;;6006395;23;20027;-74
2023/05/08 11:48:19;;;;;;;49.35;45.10;;;22.30;99.90;;;;;;6029217;23;20007;-73
2023/05/08 11:50:45;;;;;;;46.75;42.58;;;22.50;99.90;;;;;;6030012;23;20382;-73
2023/05/08 11:53:11;;;;;;;48.97;44.70;;;22.50;99.90;;;;;;6028772;23;20499;-73
2023/05/08 11:55:37;;;;;;;47.28;43.28;;;22.60;99.90;;;;;;6028781;23;20011;-73
2023/05/08 11:58:11;;;;;;;43.13;39.47;;;22.80;99.90;;;;;;6030477;23;20087;-73
2023/05/08 12:00:43;;;;;;;44.10;40.17;;;23.10;99.90;;;;;;6031287;23;20079;-73
2023/05/08 12:03:12;;;;;;;41.00;37.42;;;23.30;99.90;;;;;;6035807;23;20464;-73
2023/05/08 12:05:37;;;;;;;38.38;34.95;;;23.40;99.90;;;;;;6178910;23;20111;-73
2023/05/08 12:08:05;;;;;;;38.47;35.17;;;23.50;99.90;;;;;;6181283;23;20386;-73
2023/05/08 12:10:31;;;;;;;32.55;29.85;;;23.60;99.90;;;;;;6181098;23;20008;-73
2023/05/08 12:12:57;;;;;;;37.90;34.28;;;23.60;99.90;;;;;;6154182;23;20001;-72
2023/05/08 12:15:22;;;;;;;38.03;34.70;;;23.40;99.90;;;;;;6178665;23;20009;-72
2023/05/08 12:17:48;;;;;;;38.15;34.75;;;23.30;99.90;;;;;;6180040;23;20323;-73
2023/05/08 12:20:17;;;;;;;37.80;34.60;;;23.20;99.90;;;;;;6180873;23;20009;-73
2023/05/08 12:22:51;;;;;;;36.67;33.40;;;23.20;99.90;;;;;;6155042;23;20457;-73
2023/05/08 12:25:17;;;;;;;33.88;30.92;;;23.20;99.90;;;;;;6180871;23;20005;-73
2023/05/08 12:27:44;;;;;;;36.03;33.17;;;23.20;99.90;;;;;;6179830;23;20076;-73
2023/05/08 12:30:12;;;;;;;36.75;33.60;;;23.30;99.90;;;;;;6154353;23;20012;-73
2023/05/08 12:32:40;;;;;;;36.47;33.17;;;23.30;99.90;;;;;;6181581;23;19997;-72
2023/05/08 12:35:07;;;;;;;35.20;32.30;;;23.40;99.90;;;;;;6181328;23;20005;-72